createdAt,value
2016-12-01T00:01:06.120Z,16.28
2016-12-01T00:02:16.877Z,16.23
2016-12-01T00:03:27.602Z,16.24
2016-12-01T00:04:38.312Z,16.25
2016-12-01T00:05:48.972Z,16.15
2016-12-01T00:06:59.655Z,16.25
2016-12-01T00:08:10.864Z,16.2
2016-12-01T00:09:22.083Z,16.12
2016-12-01T00:10:32.756Z,16.21
2016-12-01T00:11:43.454Z,16.28
2016-12-01T00:12:54.150Z,16.3
2016-12-01T00:14:04.853Z,16.24
2016-12-01T00:15:15.555Z,16.2
2016-12-01T00:16:26.235Z,16.14
2016-12-01T00:17:36.913Z,16.09
2016-12-01T00:18:47.567Z,16.11
2016-12-01T00:19:58.272Z,16.07
2016-12-01T00:21:09.499Z,16.08
2016-12-01T00:22:20.166Z,16.05
2016-12-01T00:23:30.869Z,16.01
2016-12-01T00:24:41.570Z,16.11
2016-12-01T00:25:52.240Z,16.07
2016-12-01T00:27:02.909Z,16.09
2016-12-01T00:28:13.625Z,16.02
2016-12-01T00:29:24.338Z,16.08
2016-12-01T00:30:35.020Z,16.07
2016-12-01T00:31:45.714Z,16.05
2016-12-01T00:32:56.387Z,16.04
2016-12-01T00:34:07.066Z,16
2016-12-01T00:35:17.779Z,16.02
2016-12-01T00:36:28.469Z,15.94
2016-12-01T00:37:39.155Z,15.94
2016-12-01T00:38:49.843Z,15.89
2016-12-01T00:40:00.507Z,15.9
2016-12-01T00:41:11.284Z,15.87
2016-12-01T00:42:21.966Z,15.9
2016-12-01T00:43:32.646Z,15.93
2016-12-01T00:44:43.322Z,15.93
2016-12-01T00:45:53.998Z,15.94
2016-12-01T00:47:04.692Z,15.94
2016-12-01T00:48:15.396Z,15.94
2016-12-01T00:49:26.067Z,16.01
2016-12-01T00:50:36.743Z,16.02
2016-12-01T00:51:47.430Z,16.09
2016-12-01T00:52:58.078Z,16.01
2016-12-01T00:54:08.773Z,16.01
2016-12-01T00:55:19.464Z,16.05
2016-12-01T00:56:30.152Z,16
2016-12-01T00:57:40.842Z,16.02
2016-12-01T00:58:51.525Z,16
2016-12-01T01:00:02.201Z,15.94
2016-12-01T01:01:12.875Z,15.94
2016-12-01T01:02:23.560Z,15.94
2016-12-01T01:03:34.231Z,16
2016-12-01T01:04:44.912Z,16
2016-12-01T01:05:55.600Z,16.05
2016-12-01T01:07:06.304Z,16.07
2016-12-01T01:08:16.999Z,16
2016-12-01T01:09:27.673Z,15.94
2016-12-01T01:10:38.364Z,16
2016-12-01T01:11:49.039Z,15.97
2016-12-01T01:12:59.743Z,15.89
2016-12-01T01:14:10.450Z,16
2016-12-01T01:15:21.132Z,15.96
2016-12-01T01:16:31.813Z,15.96
2016-12-01T01:17:42.483Z,15.94
2016-12-01T01:18:53.162Z,15.94
2016-12-01T01:20:03.864Z,15.96
2016-12-01T01:21:14.568Z,16.01
2016-12-01T01:22:25.752Z,15.94
2016-12-01T01:23:36.970Z,15.94
2016-12-01T01:24:47.660Z,15.93
2016-12-01T01:25:58.346Z,16
2016-12-01T01:27:09.031Z,16.02
2016-12-01T01:28:19.706Z,15.96
2016-12-01T01:29:30.398Z,15.92
2016-12-01T01:30:41.112Z,15.94
2016-12-01T01:31:51.821Z,15.94
2016-12-01T01:33:02.479Z,15.93
2016-12-01T01:34:13.165Z,15.9
2016-12-01T01:35:23.832Z,15.84
2016-12-01T01:36:34.508Z,15.96
2016-12-01T01:37:45.225Z,15.97
2016-12-01T01:38:55.883Z,15.92
2016-12-01T01:40:06.571Z,15.92
2016-12-01T01:41:17.253Z,15.97
2016-12-01T01:42:27.952Z,15.9
2016-12-01T01:43:38.629Z,15.92
2016-12-01T01:44:49.343Z,15.84
2016-12-01T01:46:00.058Z,15.83
2016-12-01T01:47:10.734Z,15.82
2016-12-01T01:48:21.435Z,15.86
2016-12-01T01:49:32.102Z,15.86
2016-12-01T01:50:42.782Z,15.83
2016-12-01T01:51:53.458Z,15.87
2016-12-01T01:53:04.162Z,15.86
2016-12-01T01:54:14.848Z,15.86
2016-12-01T01:55:25.551Z,15.86
2016-12-01T01:56:36.210Z,15.86
2016-12-01T01:57:46.905Z,15.82
2016-12-01T01:58:57.577Z,15.92
2016-12-01T02:00:08.320Z,15.92
2016-12-01T02:01:18.972Z,15.93
2016-12-01T02:02:29.647Z,15.96
2016-12-01T02:03:40.326Z,15.93
2016-12-01T02:04:50.986Z,15.9
2016-12-01T02:06:02.188Z,15.97
2016-12-01T02:07:12.874Z,15.87
2016-12-01T02:08:23.579Z,15.94
2016-12-01T02:09:34.263Z,15.89
2016-12-01T02:10:44.955Z,15.94
2016-12-01T02:11:56.152Z,15.9
2016-12-01T02:13:06.861Z,15.94
2016-12-01T02:14:17.528Z,15.9
2016-12-01T02:15:28.224Z,15.89
2016-12-01T02:16:38.914Z,15.9
2016-12-01T02:17:49.599Z,15.84
2016-12-01T02:19:00.273Z,15.93
2016-12-01T02:20:10.965Z,15.89
2016-12-01T02:21:21.644Z,15.83
2016-12-01T02:22:32.326Z,15.86
2016-12-01T02:23:42.981Z,15.89
2016-12-01T02:24:53.702Z,15.86
2016-12-01T02:26:04.379Z,15.84
2016-12-01T02:27:15.065Z,15.92
2016-12-01T02:28:25.791Z,15.89
2016-12-01T02:29:36.480Z,15.9
2016-12-01T02:30:47.170Z,15.84
2016-12-01T02:31:57.831Z,15.89
2016-12-01T02:33:08.536Z,15.86
2016-12-01T02:34:19.241Z,15.83
2016-12-01T02:35:30.450Z,15.84
2016-12-01T02:36:41.112Z,15.86
2016-12-01T02:37:51.814Z,15.8
2016-12-01T02:39:02.473Z,15.82
2016-12-01T02:40:13.171Z,15.78
2016-12-01T02:41:23.873Z,15.83
2016-12-01T02:42:34.602Z,15.74
2016-12-01T02:43:45.296Z,15.82
2016-12-01T02:44:55.985Z,15.75
2016-12-01T02:46:06.684Z,15.74
2016-12-01T02:47:17.338Z,15.82
2016-12-01T02:48:27.993Z,15.75
2016-12-01T02:49:38.690Z,15.78
2016-12-01T02:50:49.365Z,15.76
2016-12-01T02:52:00.557Z,15.83
2016-12-01T02:53:11.875Z,15.74
2016-12-01T02:54:22.557Z,15.65
2016-12-01T02:55:33.232Z,15.65
2016-12-01T02:56:43.896Z,15.68
2016-12-01T02:57:54.587Z,15.6
2016-12-01T02:59:05.804Z,15.53
2016-12-01T03:00:16.480Z,15.51
2016-12-01T03:01:27.231Z,15.57
2016-12-01T03:02:37.944Z,15.44
2016-12-01T03:03:48.623Z,15.54
2016-12-01T03:04:59.313Z,15.41
2016-12-01T03:06:09.981Z,15.46
2016-12-01T03:07:20.652Z,15.32
2016-12-01T03:08:31.315Z,15.41
2016-12-01T03:09:42.006Z,15.44
2016-12-01T03:10:52.704Z,15.41
2016-12-01T03:12:03.389Z,15.43
2016-12-01T03:13:14.087Z,15.39
2016-12-01T03:14:24.813Z,15.39
2016-12-01T03:15:35.564Z,15.38
2016-12-01T03:16:46.276Z,15.5
2016-12-01T03:17:56.969Z,15.57
2016-12-01T03:19:07.653Z,15.47
2016-12-01T03:20:18.324Z,15.38
2016-12-01T03:21:29.014Z,15.43
2016-12-01T03:22:40.318Z,15.36
2016-12-01T03:23:51.031Z,15.46
2016-12-01T03:25:01.735Z,15.35
2016-12-01T03:26:12.925Z,15.44
2016-12-01T03:27:23.583Z,15.41
2016-12-01T03:28:34.290Z,15.46
2016-12-01T03:29:44.972Z,15.38
2016-12-01T03:30:55.648Z,15.41
2016-12-01T03:32:06.361Z,15.43
2016-12-01T03:33:17.055Z,15.5
2016-12-01T03:34:27.745Z,15.49
2016-12-01T03:35:38.476Z,15.49
2016-12-01T03:36:49.147Z,15.44
2016-12-01T03:38:00.337Z,15.53
2016-12-01T03:39:11.040Z,15.49
2016-12-01T03:40:21.728Z,15.46
2016-12-01T03:41:32.405Z,15.54
2016-12-01T03:42:43.075Z,15.54
2016-12-01T03:43:53.773Z,15.56
2016-12-01T03:45:04.460Z,15.57
2016-12-01T03:46:15.158Z,15.59
2016-12-01T03:47:25.831Z,15.62
2016-12-01T03:48:36.587Z,15.6
2016-12-01T03:49:47.260Z,15.64
2016-12-01T03:50:57.947Z,15.64
2016-12-01T03:52:08.630Z,15.67
2016-12-01T03:53:19.837Z,15.65
2016-12-01T03:54:30.536Z,15.65
2016-12-01T03:55:41.229Z,15.62
2016-12-01T03:56:51.918Z,15.65
2016-12-01T03:58:02.626Z,15.64
2016-12-01T03:59:13.303Z,15.65
2016-12-01T04:00:23.992Z,15.56
2016-12-01T04:01:34.691Z,15.6
2016-12-01T04:02:45.382Z,15.64
2016-12-01T04:03:56.061Z,15.67
2016-12-01T04:05:06.741Z,15.68
2016-12-01T04:06:17.443Z,15.69
2016-12-01T04:07:28.137Z,15.53
2016-12-01T04:08:38.803Z,15.53
2016-12-01T04:09:49.473Z,15.54
2016-12-01T04:11:00.158Z,15.59
2016-12-01T04:12:10.862Z,15.56
2016-12-01T04:13:21.557Z,15.56
2016-12-01T04:14:32.265Z,15.56
2016-12-01T04:15:42.965Z,15.64
2016-12-01T04:16:53.637Z,15.64
2016-12-01T04:18:04.334Z,15.56
2016-12-01T04:19:15.041Z,15.64
2016-12-01T04:20:25.721Z,15.6
2016-12-01T04:21:36.392Z,15.67
2016-12-01T04:22:47.069Z,15.62
2016-12-01T04:23:57.753Z,15.68
2016-12-01T04:25:08.441Z,15.67
2016-12-01T04:26:19.151Z,15.69
2016-12-01T04:27:29.831Z,15.68
2016-12-01T04:28:40.505Z,15.67
2016-12-01T04:29:51.679Z,15.56
2016-12-01T04:31:02.378Z,15.62
2016-12-01T04:32:13.054Z,15.64
2016-12-01T04:33:23.735Z,15.64
2016-12-01T04:34:34.424Z,15.65
2016-12-01T04:35:45.124Z,15.64
2016-12-01T04:36:55.806Z,15.67
2016-12-01T04:38:06.496Z,15.67
2016-12-01T04:39:17.177Z,15.68
2016-12-01T04:40:27.845Z,15.71
2016-12-01T04:41:38.523Z,15.78
2016-12-01T04:42:49.225Z,15.75
2016-12-01T04:43:59.911Z,15.71
2016-12-01T04:45:10.611Z,15.71
2016-12-01T04:46:21.297Z,15.76
2016-12-01T04:47:31.971Z,15.74
2016-12-01T04:48:42.633Z,15.75
2016-12-01T04:49:53.356Z,15.74
2016-12-01T04:51:04.082Z,15.72
2016-12-01T04:52:14.747Z,15.74
2016-12-01T04:53:25.413Z,15.67
2016-12-01T04:54:36.072Z,15.69
2016-12-01T04:55:46.757Z,15.67
2016-12-01T04:56:57.459Z,15.64
2016-12-01T04:58:08.141Z,15.69
2016-12-01T04:59:18.831Z,15.68
2016-12-01T05:00:29.509Z,15.62
2016-12-01T05:01:40.186Z,15.65
2016-12-01T05:02:50.881Z,15.67
2016-12-01T05:04:01.560Z,15.59
2016-12-01T05:05:12.242Z,15.64
2016-12-01T05:06:22.922Z,15.72
2016-12-01T05:07:33.591Z,15.71
2016-12-01T05:08:44.266Z,15.71
2016-12-01T05:09:54.961Z,15.74
2016-12-01T05:11:05.674Z,15.75
2016-12-01T05:12:16.351Z,15.72
2016-12-01T05:13:27.024Z,15.72
2016-12-01T05:14:38.215Z,15.64
2016-12-01T05:15:49.415Z,15.68
2016-12-01T05:17:00.124Z,15.65
2016-12-01T05:18:10.809Z,15.6
2016-12-01T05:19:21.993Z,15.64
2016-12-01T05:20:32.706Z,15.6
2016-12-01T05:21:43.378Z,15.62
2016-12-01T05:22:54.059Z,15.53
2016-12-01T05:24:04.750Z,15.5
2016-12-01T05:25:15.448Z,15.57
2016-12-01T05:26:26.127Z,15.54
2016-12-01T05:27:36.809Z,15.49
2016-12-01T05:28:47.484Z,15.47
2016-12-01T05:29:58.168Z,15.44
2016-12-01T05:31:08.849Z,15.44
2016-12-01T05:32:19.533Z,15.43
2016-12-01T05:33:30.219Z,15.39
2016-12-01T05:34:40.938Z,15.32
2016-12-01T05:35:51.603Z,15.32
2016-12-01T05:37:02.275Z,15.39
2016-12-01T05:38:12.982Z,15.28
2016-12-01T05:39:23.685Z,15.31
2016-12-01T05:40:34.368Z,15.35
2016-12-01T05:41:45.098Z,15.34
2016-12-01T05:42:55.780Z,15.34
2016-12-01T05:44:06.471Z,15.23
2016-12-01T05:45:17.172Z,15.21
2016-12-01T05:46:27.836Z,15.19
2016-12-01T05:47:38.532Z,15.21
2016-12-01T05:48:49.237Z,15.14
2016-12-01T05:49:59.944Z,15.17
2016-12-01T05:51:10.637Z,15.19
2016-12-01T05:52:21.353Z,15.14
2016-12-01T05:53:32.024Z,15.21
2016-12-01T05:54:42.685Z,15.27
2016-12-01T05:55:53.367Z,15.2
2016-12-01T05:57:04.062Z,15.28
2016-12-01T05:58:14.734Z,15.31
2016-12-01T05:59:25.423Z,15.36
2016-12-01T06:00:36.117Z,15.36
2016-12-01T06:01:46.805Z,15.38
2016-12-01T06:02:57.491Z,15.36
2016-12-01T06:04:08.163Z,15.38
2016-12-01T06:05:18.851Z,15.5
2016-12-01T06:06:29.551Z,15.49
2016-12-01T06:07:40.271Z,15.65
2016-12-01T06:08:50.958Z,15.65
2016-12-01T06:10:01.692Z,15.57
2016-12-01T06:11:12.389Z,15.57
2016-12-01T06:12:23.068Z,15.68
2016-12-01T06:13:33.754Z,15.64
2016-12-01T06:14:44.473Z,15.71
2016-12-01T06:15:55.180Z,15.65
2016-12-01T06:17:05.839Z,15.69
2016-12-01T06:18:16.529Z,15.62
2016-12-01T06:19:27.223Z,15.62
2016-12-01T06:20:38.393Z,15.65
2016-12-01T06:21:49.085Z,15.72
2016-12-01T06:22:59.782Z,15.72
2016-12-01T06:24:10.599Z,15.75
2016-12-01T06:25:21.304Z,15.72
2016-12-01T06:26:32.002Z,15.76
2016-12-01T06:27:42.723Z,15.82
2016-12-01T06:28:53.374Z,15.83
2016-12-01T06:30:04.064Z,15.8
2016-12-01T06:31:14.752Z,15.8
2016-12-01T06:32:25.418Z,15.86
2016-12-01T06:33:36.087Z,15.86
2016-12-01T06:34:46.762Z,15.84
2016-12-01T06:35:57.785Z,15.86
2016-12-01T06:37:08.457Z,15.83
2016-12-01T06:38:19.170Z,15.8
2016-12-01T06:39:29.918Z,15.84
2016-12-01T06:40:40.590Z,15.83
2016-12-01T06:41:51.294Z,15.83
2016-12-01T06:43:02.005Z,15.82
2016-12-01T06:44:12.696Z,15.74
2016-12-01T06:45:23.421Z,15.74
2016-12-01T06:46:34.094Z,15.72
2016-12-01T06:47:44.772Z,15.67
2016-12-01T06:48:55.457Z,15.65
2016-12-01T06:50:06.128Z,15.53
2016-12-01T06:51:16.833Z,15.49
2016-12-01T06:52:27.533Z,15.54
2016-12-01T06:53:38.201Z,15.53
2016-12-01T06:54:48.906Z,15.49
2016-12-01T06:55:59.593Z,15.47
2016-12-01T06:57:10.302Z,15.47
2016-12-01T06:58:20.953Z,15.38
2016-12-01T06:59:31.676Z,15.39
2016-12-01T07:00:42.347Z,15.36
2016-12-01T07:01:53.021Z,15.38
2016-12-01T07:03:03.686Z,15.29
2016-12-01T07:04:14.382Z,15.34
2016-12-01T07:05:25.098Z,15.32
2016-12-01T07:06:35.745Z,15.29
2016-12-01T07:07:46.400Z,15.32
2016-12-01T07:08:57.131Z,15.19
2016-12-01T07:10:07.792Z,15.25
2016-12-01T07:11:18.466Z,15.39
2016-12-01T07:12:29.144Z,15.35
2016-12-01T07:13:39.828Z,15.29
2016-12-01T07:14:50.514Z,15.32
2016-12-01T07:16:01.199Z,15.29
2016-12-01T07:17:11.917Z,15.25
2016-12-01T07:18:22.656Z,15.35
2016-12-01T07:19:33.352Z,15.39
2016-12-01T07:20:44.062Z,15.32
2016-12-01T07:21:54.730Z,15.34
2016-12-01T07:23:05.427Z,15.36
2016-12-01T07:24:16.105Z,15.36
2016-12-01T07:25:26.820Z,15.43
2016-12-01T07:26:37.496Z,15.29
2016-12-01T07:27:48.302Z,15.19
2016-12-01T07:28:59.552Z,15.23
2016-12-01T07:30:10.756Z,15.1
2016-12-01T07:31:21.434Z,15.17
2016-12-01T07:32:32.127Z,15.14
2016-12-01T07:33:42.818Z,15.11
2016-12-01T07:34:53.516Z,15.1
2016-12-01T07:36:04.211Z,15.02
2016-12-01T07:37:14.945Z,15.09
2016-12-01T07:38:25.610Z,15.01
2016-12-01T07:39:36.285Z,15.14
2016-12-01T07:40:47.017Z,15.16
2016-12-01T07:41:57.692Z,15.2
2016-12-01T07:43:08.355Z,15.1
2016-12-01T07:44:19.043Z,15.1
2016-12-01T07:45:29.740Z,15.07
2016-12-01T07:46:40.457Z,15.1
2016-12-01T07:47:51.149Z,15.09
2016-12-01T07:49:01.841Z,15.13
2016-12-01T07:50:12.535Z,15.14
2016-12-01T07:51:23.225Z,15.1
2016-12-01T07:52:33.910Z,15.13
2016-12-01T07:53:44.620Z,15.11
2016-12-01T07:54:55.299Z,15.11
2016-12-01T07:56:05.978Z,15.13
2016-12-01T07:57:16.639Z,15.17
2016-12-01T07:58:27.314Z,15.13
2016-12-01T07:59:37.997Z,15.21
2016-12-01T08:00:48.673Z,15.25
2016-12-01T08:01:59.368Z,15.36
2016-12-01T08:03:10.080Z,15.39
2016-12-01T08:04:20.769Z,15.5
2016-12-01T08:05:31.469Z,15.46
2016-12-01T08:06:42.172Z,15.51
2016-12-01T08:07:52.842Z,15.5
2016-12-01T08:09:03.513Z,15.49
2016-12-01T08:10:14.211Z,15.51
2016-12-01T08:11:24.849Z,15.59
2016-12-01T08:12:35.536Z,15.56
2016-12-01T08:13:46.212Z,15.57
2016-12-01T08:14:56.887Z,15.64
2016-12-01T08:16:07.568Z,15.65
2016-12-01T08:17:18.248Z,15.67
2016-12-01T08:18:28.928Z,15.68
2016-12-01T08:19:39.591Z,15.71
2016-12-01T08:20:50.260Z,15.59
2016-12-01T08:22:00.942Z,15.53
2016-12-01T08:23:11.669Z,15.53
2016-12-01T08:24:22.363Z,15.51
2016-12-01T08:25:33.051Z,15.53
2016-12-01T08:26:43.747Z,15.53
2016-12-01T08:27:54.433Z,15.56
2016-12-01T08:29:05.158Z,15.65
2016-12-01T08:30:15.852Z,15.67
2016-12-01T08:31:26.528Z,15.76
2016-12-01T08:32:37.219Z,15.82
2016-12-01T08:33:47.915Z,15.8
2016-12-01T08:34:58.599Z,15.84
2016-12-01T08:36:09.296Z,15.92
2016-12-01T08:37:19.935Z,15.97
2016-12-01T08:38:30.667Z,15.93
2016-12-01T08:39:41.363Z,15.93
2016-12-01T08:40:52.060Z,16.01
2016-12-01T08:42:02.741Z,16.02
2016-12-01T08:43:13.414Z,16.05
2016-12-01T08:44:24.075Z,15.87
2016-12-01T08:45:34.752Z,16.09
2016-12-01T08:46:45.413Z,16.07
2016-12-01T08:47:56.096Z,16.04
2016-12-01T08:49:06.796Z,15.89
2016-12-01T08:50:17.461Z,15.96
2016-12-01T08:51:28.153Z,16.08
2016-12-01T08:52:38.827Z,16.05
2016-12-01T08:53:49.477Z,16.08
2016-12-01T08:55:00.171Z,16.17
2016-12-01T08:56:10.846Z,16.21
2016-12-01T08:57:21.521Z,16.33
2016-12-01T08:58:32.193Z,16.25
2016-12-01T08:59:42.863Z,16.33
2016-12-01T09:00:53.555Z,16.28
2016-12-01T09:02:04.258Z,16.3
2016-12-01T09:03:14.928Z,16.35
2016-12-01T09:04:25.619Z,16.42
2016-12-01T09:05:36.318Z,16.43
2016-12-01T09:06:47.014Z,16.43
2016-12-01T09:07:57.729Z,16.43
2016-12-01T09:09:08.421Z,16.53
2016-12-01T09:10:19.114Z,16.46
2016-12-01T09:11:30.839Z,16.5
2016-12-01T09:12:41.520Z,16.45
2016-12-01T09:13:52.209Z,16.43
2016-12-01T09:15:03.411Z,16.52
2016-12-01T09:16:14.124Z,16.56
2016-12-01T09:17:24.788Z,16.58
2016-12-01T09:18:35.497Z,16.71
2016-12-01T09:19:46.151Z,16.61
2016-12-01T09:20:56.844Z,16.76
2016-12-01T09:22:07.524Z,16.81
2016-12-01T09:23:18.223Z,16.75
2016-12-01T09:24:28.903Z,16.78
2016-12-01T09:25:40.116Z,16.86
2016-12-01T09:26:50.806Z,16.86
2016-12-01T09:28:01.483Z,16.75
2016-12-01T09:29:12.239Z,16.86
2016-12-01T09:30:22.943Z,16.86
2016-12-01T09:31:33.649Z,16.96
2016-12-01T09:32:44.327Z,17.04
2016-12-01T09:33:55.023Z,17.12
2016-12-01T09:35:06.216Z,17.04
2016-12-01T09:36:16.879Z,16.98
2016-12-01T09:37:27.573Z,16.96
2016-12-01T09:38:38.295Z,17.01
2016-12-01T09:39:48.968Z,17.16
2016-12-01T09:40:59.701Z,17.15
2016-12-01T09:42:10.396Z,17.16
2016-12-01T09:43:21.080Z,17.19
2016-12-01T09:44:31.782Z,17.16
2016-12-01T09:45:42.455Z,17.16
2016-12-01T09:46:53.659Z,17.22
2016-12-01T09:48:04.350Z,17.25
2016-12-01T09:49:15.046Z,17.25
2016-12-01T09:50:25.747Z,17.26
2016-12-01T09:51:36.433Z,17.31
2016-12-01T09:52:47.096Z,17.21
2016-12-01T09:53:57.780Z,17.18
2016-12-01T09:55:08.485Z,17.07
2016-12-01T09:56:19.180Z,17.03
2016-12-01T09:57:29.849Z,17.01
2016-12-01T09:58:40.531Z,16.97
2016-12-01T09:59:51.229Z,16.88
2016-12-01T10:01:01.911Z,16.83
2016-12-01T10:02:12.617Z,16.82
2016-12-01T10:03:23.322Z,16.82
2016-12-01T10:04:34.004Z,16.83
2016-12-01T10:05:44.716Z,16.85
2016-12-01T10:06:55.429Z,16.85
2016-12-01T10:08:06.109Z,16.98
2016-12-01T10:09:16.820Z,16.96
2016-12-01T10:10:27.498Z,17.03
2016-12-01T10:11:38.240Z,16.94
2016-12-01T10:12:49.005Z,16.93
2016-12-01T10:13:59.698Z,16.94
2016-12-01T10:15:10.378Z,16.93
2016-12-01T10:16:21.069Z,16.94
2016-12-01T10:17:31.756Z,16.94
2016-12-01T10:18:42.431Z,16.98
2016-12-01T10:19:53.126Z,17.01
2016-12-01T10:21:04.341Z,16.97
2016-12-01T10:22:15.213Z,17.01
2016-12-01T10:23:25.929Z,16.93
2016-12-01T10:24:36.602Z,17.11
2016-12-01T10:25:47.629Z,17.22
2016-12-01T10:26:58.397Z,17.23
2016-12-01T10:28:09.117Z,17.34
2016-12-01T10:29:19.837Z,17.51
2016-12-01T10:30:30.500Z,17.64
2016-12-01T10:31:41.177Z,17.59
2016-12-01T10:32:51.849Z,17.51
2016-12-01T10:34:02.582Z,17.33
2016-12-01T10:35:13.285Z,17.34
2016-12-01T10:36:23.995Z,17.37
2016-12-01T10:37:34.675Z,17.44
2016-12-01T10:38:45.411Z,17.63
2016-12-01T10:39:56.078Z,17.66
2016-12-01T10:41:06.807Z,17.75
2016-12-01T10:42:17.500Z,17.84
2016-12-01T10:43:28.165Z,17.92
2016-12-01T10:44:38.831Z,17.99
2016-12-01T10:45:49.524Z,18.02
2016-12-01T10:47:00.199Z,18.05
2016-12-01T10:48:10.869Z,18.07
2016-12-01T10:49:21.574Z,18.03
2016-12-01T10:50:32.293Z,18.1
2016-12-01T10:51:42.987Z,18.14
2016-12-01T10:52:53.771Z,18.07
2016-12-01T10:54:04.477Z,18.21
2016-12-01T10:55:15.159Z,18.12
2016-12-01T10:56:25.847Z,18.14
2016-12-01T10:57:36.522Z,18.35
2016-12-01T10:58:47.259Z,18.45
2016-12-01T10:59:57.953Z,18.58
2016-12-01T11:01:08.642Z,18.6
2016-12-01T11:02:19.349Z,18.55
2016-12-01T11:03:30.034Z,18.58
2016-12-01T11:04:40.713Z,18.41
2016-12-01T11:05:51.939Z,18.36
2016-12-01T11:07:02.643Z,18.35
2016-12-01T11:08:13.319Z,18.48
2016-12-01T11:09:24.073Z,18.35
2016-12-01T11:10:34.729Z,18.35
2016-12-01T11:11:45.951Z,18.21
2016-12-01T11:12:56.657Z,18.15
2016-12-01T11:14:07.369Z,18.2
2016-12-01T11:15:18.054Z,18.18
2016-12-01T11:16:28.733Z,18.03
2016-12-01T11:17:39.421Z,18.12
2016-12-01T11:18:50.128Z,18.07
2016-12-01T11:20:00.824Z,18.17
2016-12-01T11:21:11.537Z,18.18
2016-12-01T11:22:22.244Z,18.14
2016-12-01T11:23:32.961Z,18.18
2016-12-01T11:24:43.666Z,18.37
2016-12-01T11:25:54.624Z,18.62
2016-12-01T11:27:05.790Z,18.82
2016-12-01T11:28:16.955Z,19.06
2016-12-01T11:29:28.141Z,19.28
2016-12-01T11:30:39.313Z,19.55
2016-12-01T11:31:50.506Z,19.77
2016-12-01T11:33:01.718Z,19.86
2016-12-01T11:34:12.876Z,20.21
2016-12-01T11:35:24.082Z,20.03
2016-12-01T11:36:35.246Z,20.1
2016-12-01T11:37:46.686Z,19.98
2016-12-01T11:38:57.841Z,19.96
2016-12-01T11:40:09.007Z,19.91
2016-12-01T11:41:20.188Z,19.98
2016-12-01T11:42:31.349Z,20.14
2016-12-01T11:43:42.514Z,19.96
2016-12-01T11:44:54.248Z,19.86
2016-12-01T11:46:05.421Z,19.96
2016-12-01T11:47:16.580Z,20.06
2016-12-01T11:48:27.759Z,20.08
2016-12-01T11:49:38.947Z,20.18
2016-12-01T11:50:50.129Z,20.1
2016-12-01T11:52:01.283Z,20.08
2016-12-01T11:53:13.023Z,20.31
2016-12-01T11:54:24.174Z,20.38
2016-12-01T11:55:35.394Z,20.14
2016-12-01T11:56:46.593Z,20.13
2016-12-01T11:57:57.774Z,20.03
2016-12-01T11:59:08.933Z,20.01
2016-12-01T12:00:20.130Z,20.31
2016-12-01T12:01:31.315Z,20.52
2016-12-01T12:02:42.467Z,20.14
2016-12-01T12:03:53.635Z,20.13
2016-12-01T12:05:04.805Z,19.96
2016-12-01T12:06:15.984Z,20.18
2016-12-01T12:07:27.145Z,20.36
2016-12-01T12:08:38.346Z,20.54
2016-12-01T12:09:49.512Z,20.51
2016-12-01T12:11:00.687Z,20.67
2016-12-01T12:12:11.871Z,20.72
2016-12-01T12:13:23.044Z,20.69
2016-12-01T12:14:34.221Z,20.92
2016-12-01T12:15:45.374Z,20.85
2016-12-01T12:16:56.520Z,20.88
2016-12-01T12:18:07.734Z,20.91
2016-12-01T12:19:18.944Z,20.95
2016-12-01T12:20:30.150Z,20.87
2016-12-01T12:21:41.310Z,20.74
2016-12-01T12:22:52.495Z,20.52
2016-12-01T12:24:03.770Z,20.47
2016-12-01T12:25:15.236Z,20.26
2016-12-01T12:26:26.578Z,20.01
2016-12-01T12:27:37.735Z,19.73
2016-12-01T12:28:48.927Z,19.66
2016-12-01T12:30:00.649Z,19.76
2016-12-01T12:31:11.861Z,19.98
2016-12-01T12:32:23.010Z,20.23
2016-12-01T12:33:34.174Z,20.28
2016-12-01T12:34:45.338Z,20.18
2016-12-01T12:35:56.559Z,20.38
2016-12-01T12:37:07.702Z,20.29
2016-12-01T12:38:18.864Z,20.21
2016-12-01T12:39:30.615Z,20.06
2016-12-01T12:40:41.759Z,20.17
2016-12-01T12:41:53.535Z,20.35
2016-12-01T12:43:04.710Z,20.52
2016-12-01T12:44:15.865Z,20.61
2016-12-01T12:45:27.018Z,20.76
2016-12-01T12:46:38.185Z,20.76
2016-12-01T12:47:49.355Z,20.62
2016-12-01T12:49:00.537Z,20.58
2016-12-01T12:50:11.740Z,20.5
2016-12-01T12:51:23.054Z,20.23
2016-12-01T12:52:34.278Z,20.13
2016-12-01T12:53:46.667Z,20.06
2016-12-01T12:54:57.858Z,20.13
2016-12-01T12:56:09.018Z,20.1
2016-12-01T12:57:19.913Z,20.1
2016-12-01T12:58:30.586Z,20.1
2016-12-01T12:59:41.272Z,20.1
2016-12-01T13:00:52.505Z,20.08
2016-12-01T13:02:03.173Z,20.28
2016-12-01T13:03:13.863Z,20.23
2016-12-01T13:04:24.532Z,20.21
2016-12-01T13:05:35.254Z,20.29
2016-12-01T13:06:45.958Z,20.14
2016-12-01T13:07:56.651Z,19.98
2016-12-01T13:09:07.343Z,20.01
2016-12-01T13:10:18.049Z,20.11
2016-12-01T13:11:28.745Z,20.26
2016-12-01T13:12:39.426Z,20.38
2016-12-01T13:13:50.086Z,20.32
2016-12-01T13:15:01.322Z,20.52
2016-12-01T13:16:12.017Z,20.58
2016-12-01T13:17:22.698Z,20.69
2016-12-01T13:18:33.385Z,20.97
2016-12-01T13:19:44.087Z,20.77
2016-12-01T13:20:54.773Z,20.85
2016-12-01T13:22:05.451Z,20.95
2016-12-01T13:23:16.133Z,20.91
2016-12-01T13:24:26.841Z,20.91
2016-12-01T13:25:37.512Z,21.03
2016-12-01T13:26:48.224Z,21.1
2016-12-01T13:27:58.935Z,21.53
2016-12-01T13:29:09.620Z,21.58
2016-12-01T13:30:20.334Z,21.62
2016-12-01T13:31:31.060Z,21.68
2016-12-01T13:32:41.744Z,21.62
2016-12-01T13:33:52.434Z,21.72
2016-12-01T13:35:03.139Z,21.79
2016-12-01T13:36:13.825Z,21.67
2016-12-01T13:37:24.528Z,21.64
2016-12-01T13:38:35.710Z,21.62
2016-12-01T13:39:46.901Z,21.67
2016-12-01T13:40:57.625Z,21.5
2016-12-01T13:42:08.316Z,21.34
2016-12-01T13:43:19.011Z,21.58
2016-12-01T13:44:29.726Z,21.64
2016-12-01T13:45:40.428Z,21.61
2016-12-01T13:46:51.116Z,21.61
2016-12-01T13:48:01.821Z,21.72
2016-12-01T13:49:12.758Z,21.83
2016-12-01T13:50:23.435Z,22
2016-12-01T13:51:34.152Z,22.09
2016-12-01T13:52:44.837Z,21.99
2016-12-01T13:53:55.544Z,22.14
2016-12-01T13:55:07.277Z,22.22
2016-12-01T13:56:17.973Z,22.1
2016-12-01T13:57:28.690Z,22
2016-12-01T13:58:39.913Z,22.09
2016-12-01T13:59:50.598Z,22.22
2016-12-01T14:01:01.311Z,22.57
2016-12-01T14:02:12.016Z,23.02
2016-12-01T14:03:22.708Z,23
2016-12-01T14:04:33.409Z,23.02
2016-12-01T14:05:44.098Z,23.15
2016-12-01T14:06:54.812Z,22.68
2016-12-01T14:08:05.484Z,22.37
2016-12-01T14:09:16.197Z,22.24
2016-12-01T14:10:26.897Z,22.68
2016-12-01T14:11:37.584Z,22.75
2016-12-01T14:12:48.839Z,22.73
2016-12-01T14:13:59.526Z,22.35
2016-12-01T14:15:10.238Z,22.14
2016-12-01T14:16:20.911Z,22
2016-12-01T14:17:31.609Z,22.03
2016-12-01T14:18:42.865Z,21.91
2016-12-01T14:19:53.551Z,21.74
2016-12-01T14:21:04.263Z,21.49
2016-12-01T14:22:14.939Z,21.38
2016-12-01T14:23:25.952Z,21.34
2016-12-01T14:24:36.701Z,21.24
2016-12-01T14:25:47.410Z,21.09
2016-12-01T14:26:58.079Z,21.16
2016-12-01T14:28:08.802Z,21.25
2016-12-01T14:29:19.477Z,21.14
2016-12-01T14:30:30.691Z,21.21
2016-12-01T14:31:41.379Z,21.49
2016-12-01T14:32:52.089Z,21.56
2016-12-01T14:34:02.808Z,22.12
2016-12-01T14:35:13.497Z,22.67
2016-12-01T14:36:24.200Z,23.04
2016-12-01T14:37:34.890Z,23.01
2016-12-01T14:38:45.572Z,22.98
2016-12-01T14:39:56.269Z,23.27
2016-12-01T14:41:07.005Z,23.83
2016-12-01T14:42:17.683Z,24.34
2016-12-01T14:43:28.352Z,24.3
2016-12-01T14:44:39.060Z,23.76
2016-12-01T14:45:49.743Z,23.12
2016-12-01T14:47:00.451Z,22.58
2016-12-01T14:48:11.179Z,22.25
2016-12-01T14:49:22.386Z,22.07
2016-12-01T14:50:33.078Z,21.92
2016-12-01T14:51:43.797Z,21.72
2016-12-01T14:52:54.480Z,21.74
2016-12-01T14:54:05.166Z,21.74
2016-12-01T14:55:15.853Z,21.86
2016-12-01T14:56:26.551Z,21.61
2016-12-01T14:57:37.239Z,21.71
2016-12-01T14:58:47.923Z,21.59
2016-12-01T14:59:58.643Z,21.56
2016-12-01T15:01:09.391Z,21.52
2016-12-01T15:02:20.070Z,21.21
2016-12-01T15:03:30.784Z,21.32
2016-12-01T15:04:41.466Z,21.4
2016-12-01T15:05:52.692Z,21.64
2016-12-01T15:07:03.390Z,21.86
2016-12-01T15:08:14.092Z,22.22
2016-12-01T15:09:24.799Z,22.42
2016-12-01T15:10:35.475Z,22.65
2016-12-01T15:11:46.149Z,22.46
2016-12-01T15:12:56.863Z,22.52
2016-12-01T15:14:07.555Z,22.51
2016-12-01T15:15:18.261Z,22.37